createdAt,value
2022-08-07T00:03:05.422Z,39.35
2022-08-07T00:08:10.002Z,39.17
2022-08-07T00:13:24.074Z,39.10
2022-08-07T00:18:29.025Z,39.12
2022-08-07T00:23:32.445Z,38.97
2022-08-07T00:28:34.755Z,39.24
2022-08-07T00:33:47.652Z,39.57
2022-08-07T00:38:49.274Z,39.93
2022-08-07T00:44:01.433Z,40.12
2022-08-07T00:49:04.472Z,39.87
2022-08-07T00:54:05.963Z,39.99
2022-08-07T00:59:07.594Z,40.37
2022-08-07T01:04:09.226Z,40.47
2022-08-07T01:09:12.139Z,39.61
2022-08-07T01:14:36.928Z,39.78
2022-08-07T01:19:39.971Z,39.51
2022-08-07T01:24:47.534Z,39.59
2022-08-07T01:29:50.631Z,40.10
2022-08-07T01:34:52.672Z,40.27
2022-08-07T01:39:54.601Z,41.14
2022-08-07T01:44:59.097Z,40.10
2022-08-07T01:50:01.717Z,40.87
2022-08-07T01:55:04.952Z,40.79
2022-08-07T02:00:13.070Z,40.83
2022-08-07T02:05:43.055Z,40.99
2022-08-07T02:10:42.821Z,41.01
2022-08-07T02:15:44.901Z,40.91
2022-08-07T02:20:51.963Z,41.74
2022-08-07T02:26:26.679Z,41.54
2022-08-07T02:31:29.244Z,41.54
2022-08-07T02:36:33.707Z,41.65
2022-08-07T02:41:37.460Z,41.89
2022-08-07T02:46:46.609Z,42.70
2022-08-07T02:51:52.234Z,42.81
2022-08-07T02:56:55.960Z,42.77
2022-08-07T03:01:58.108Z,43.23
2022-08-07T03:07:07.264Z,42.85
2022-08-07T03:12:21.981Z,42.84
2022-08-07T03:17:25.998Z,43.58
2022-08-07T03:22:29.557Z,43.28
2022-08-07T03:27:58.774Z,43.40
2022-08-07T03:32:59.221Z,43.27
2022-08-07T03:38:04.773Z,42.62
2022-08-07T03:43:13.687Z,43.15
2022-08-07T03:48:16.400Z,43.44
2022-08-07T03:53:17.736Z,43.81
2022-08-07T03:59:04.805Z,43.50
2022-08-07T04:03:49.629Z,43.11
2022-08-07T04:08:56.059Z,43.59
2022-08-07T04:14:10.681Z,43.63
2022-08-07T04:19:21.245Z,43.51
2022-08-07T04:24:43.011Z,44.00
2022-08-07T04:29:58.371Z,44.20
2022-08-07T04:35:01.916Z,44.20
2022-08-07T04:40:06.021Z,44.57
2022-08-07T04:45:08.543Z,44.76
2022-08-07T04:50:14.518Z,44.11
2022-08-07T04:58:10.441Z,44.69
2022-08-07T05:01:30.772Z,44.41
2022-08-07T05:06:43.513Z,44.51
2022-08-07T05:11:57.348Z,44.27
2022-08-07T05:17:11.936Z,44.62
2022-08-07T05:22:26.771Z,45.45
2022-08-07T05:28:02.770Z,45.36
2022-08-07T05:32:54.262Z,44.40
2022-08-07T05:38:09.116Z,43.77
2022-08-07T05:43:11.630Z,44.49
2022-08-07T05:48:15.256Z,44.25
2022-08-07T05:54:13.344Z,43.90
2022-08-07T05:58:41.024Z,44.26
2022-08-07T06:03:58.507Z,43.93
2022-08-07T06:09:04.652Z,43.58
2022-08-07T06:14:12.292Z,42.91
2022-08-07T06:19:58.063Z,42.88
2022-08-07T06:24:57.716Z,42.82
2022-08-07T06:30:00.817Z,43.10
2022-08-07T06:35:02.519Z,42.41
2022-08-07T06:40:20.613Z,42.09
2022-08-07T06:45:24.828Z,42.66
2022-08-07T06:50:27.580Z,41.49
2022-08-07T06:55:47.690Z,41.88
2022-08-07T07:00:56.011Z,40.66
2022-08-07T07:06:02.462Z,39.76
2022-08-07T07:11:13.560Z,40.04
2022-08-07T07:16:34.362Z,40.29
2022-08-07T07:22:05.289Z,39.22
2022-08-07T07:27:10.696Z,39.02
2022-08-07T07:32:14.562Z,38.56
2022-08-07T07:37:44.286Z,38.03
2022-08-07T07:42:41.101Z,37.47
2022-08-07T07:47:52.560Z,36.52
2022-08-07T07:52:56.642Z,36.44
2022-08-07T07:57:58.667Z,36.44
2022-08-07T08:03:08.461Z,35.55
2022-08-07T08:08:32.395Z,35.81
2022-08-07T08:13:36.813Z,34.98
2022-08-07T08:18:57.241Z,34.92
2022-08-07T08:24:18.776Z,34.34
2022-08-07T08:29:55.533Z,35.22
2022-08-07T08:34:58.632Z,33.88
2022-08-07T08:40:01.810Z,33.54
2022-08-07T08:45:13.188Z,33.56
2022-08-07T08:50:34.899Z,33.63
2022-08-07T08:55:58.478Z,33.03
2022-08-07T09:01:14.595Z,33.35
2022-08-07T09:06:40.403Z,33.26
2022-08-07T09:12:19.826Z,32.19
2022-08-07T09:17:59.021Z,31.87
2022-08-07T09:24:31.401Z,32.18
2022-08-07T09:30:05.008Z,32.38
2022-08-07T09:34:22.564Z,31.24
2022-08-07T09:39:53.866Z,31.46
2022-08-07T09:47:27.561Z,30.09
2022-08-07T09:50:36.537Z,31.65
2022-08-07T09:56:33.819Z,30.47
2022-08-07T10:02:00.299Z,29.40
2022-08-07T10:07:39.718Z,29.46
2022-08-07T10:13:05.139Z,28.67
2022-08-07T10:18:49.791Z,28.74
2022-08-07T10:24:10.947Z,28.11
2022-08-07T10:29:43.253Z,26.66
2022-08-07T10:35:56.357Z,24.95
2022-08-07T10:41:51.651Z,23.29
2022-08-07T10:46:55.496Z,22.69
2022-08-07T10:52:13.661Z,22.47
2022-08-07T10:57:38.445Z,23.36
2022-08-07T11:02:53.919Z,22.87
2022-08-07T11:08:18.300Z,20.89
2022-08-07T11:14:43.555Z,22.89
2022-08-07T11:19:21.755Z,22.47
2022-08-07T11:24:48.836Z,21.27
2022-08-07T11:30:17.947Z,20.27
2022-08-07T11:35:29.971Z,21.08
2022-08-07T11:40:51.592Z,20.54
2022-08-07T11:46:27.210Z,19.96
2022-08-07T11:51:54.424Z,21.44
2022-08-07T11:58:00.426Z,19.93
2022-08-07T12:03:44.497Z,19.93
2022-08-07T12:08:56.002Z,20.08
2022-08-07T12:14:08.481Z,20.20
2022-08-07T12:19:35.956Z,20.44
2022-08-07T12:26:05.652Z,19.96
2022-08-07T12:30:46.996Z,21.35
2022-08-07T12:35:58.008Z,20.78
2022-08-07T12:41:02.582Z,21.18
2022-08-07T12:46:26.200Z,20.51
2022-08-07T12:52:11.862Z,19.98
2022-08-07T12:57:10.713Z,20.14
2022-08-07T13:02:35.667Z,20.31
2022-08-07T13:08:18.887Z,20.08
2022-08-07T13:13:47.218Z,19.38
2022-08-07T13:19:22.045Z,20.15
2022-08-07T13:24:52.522Z,20.97
2022-08-07T13:30:03.601Z,20.80
2022-08-07T13:35:11.602Z,20.12
2022-08-07T13:40:42.853Z,21.50
2022-08-07T13:46:11.533Z,21.58
2022-08-07T13:51:27.773Z,21.81
2022-08-07T13:56:36.342Z,22.49
2022-08-07T14:01:51.044Z,22.87
2022-08-07T14:07:05.863Z,22.90
2022-08-07T14:12:28.110Z,22.26
2022-08-07T14:18:13.665Z,22.37
2022-08-07T14:23:02.797Z,22.62
2022-08-07T14:28:13.387Z,23.39
2022-08-07T14:33:17.033Z,22.83
2022-08-07T14:38:31.422Z,23.21
2022-08-07T14:43:57.699Z,23.27
2022-08-07T14:49:55.915Z,23.49
2022-08-07T14:54:30.943Z,23.86
2022-08-07T15:00:05.261Z,23.63
2022-08-07T15:05:01.713Z,23.24
2022-08-07T15:15:38.903Z,23.29
2022-08-07T15:20:55.496Z,24.42
2022-08-07T15:25:59.404Z,24.08
2022-08-07T15:31:05.774Z,24.06
2022-08-07T15:36:08.553Z,23.87
2022-08-07T15:41:23.748Z,24.26
2022-08-07T15:57:00.728Z,23.71
2022-08-07T16:02:04.279Z,24.16
2022-08-07T16:08:32.327Z,23.92
2022-08-07T16:12:40.562Z,23.70
2022-08-07T16:18:14.019Z,24.08
2022-08-07T16:23:58.773Z,24.04
2022-08-07T16:30:07.581Z,24.35
2022-08-07T16:34:48.823Z,24.47
2022-08-07T16:40:23.402Z,24.15
2022-08-07T16:46:34.710Z,24.39
2022-08-07T16:51:54.111Z,24.38
2022-08-07T16:58:02.061Z,24.47
2022-08-07T17:03:17.215Z,24.51
2022-08-07T17:09:04.404Z,24.66
2022-08-07T17:14:18.691Z,24.63
2022-08-07T17:20:01.832Z,25.15
2022-08-07T17:25:15.590Z,25.19
2022-08-07T17:30:20.229Z,25.38
2022-08-07T17:35:54.713Z,25.46
2022-08-07T17:42:04.401Z,25.05
2022-08-07T17:47:06.072Z,25.57
2022-08-07T17:52:17.978Z,25.43
2022-08-07T17:57:58.560Z,25.79
2022-08-07T18:04:07.203Z,25.53
2022-08-07T18:09:16.072Z,26.12
2022-08-07T18:14:29.144Z,25.83
2022-08-07T18:21:11.946Z,26.47
2022-08-07T18:25:24.131Z,26.19
2022-08-07T18:30:43.367Z,26.24
2022-08-07T18:36:05.978Z,26.40
2022-08-07T18:41:20.742Z,27.34
2022-08-07T18:46:43.021Z,26.76
2022-08-07T18:52:35.097Z,27.17
2022-08-07T18:57:59.479Z,29.25
2022-08-07T19:03:16.114Z,28.62
2022-08-07T19:08:26.401Z,28.67
2022-08-07T19:13:50.282Z,29.88
2022-08-07T19:19:03.041Z,29.38
2022-08-07T19:24:13.369Z,29.47
2022-08-07T19:31:06.122Z,29.20
2022-08-07T19:35:14.062Z,29.69
2022-08-07T19:40:18.510Z,29.23
2022-08-07T19:46:04.698Z,29.30
2022-08-07T19:51:01.718Z,29.61
2022-08-07T19:56:13.650Z,29.94
2022-08-07T20:01:52.724Z,30.19
2022-08-07T20:06:54.789Z,29.56
2022-08-07T20:12:22.849Z,30.13
2022-08-07T20:17:21.375Z,30.15
2022-08-07T20:22:29.417Z,30.48
2022-08-07T20:27:46.047Z,30.08
2022-08-07T20:32:50.237Z,29.88
2022-08-07T20:37:58.434Z,30.59
2022-08-07T20:43:14.845Z,30.92
2022-08-07T20:48:29.570Z,30.56
2022-08-07T20:54:03.667Z,31.15
2022-08-07T20:58:58.576Z,30.66
2022-08-07T21:04:22.162Z,31.25
2022-08-07T21:09:52.096Z,31.06
2022-08-07T21:14:55.582Z,31.80
2022-08-07T21:20:05.263Z,31.68
2022-08-07T21:25:42.438Z,31.67
2022-08-07T21:31:49.276Z,31.84
2022-08-07T21:37:10.239Z,31.28
2022-08-07T21:47:56.182Z,31.90
2022-08-07T21:53:16.146Z,31.89
2022-08-07T21:58:45.959Z,32.59
2022-08-07T22:04:02.699Z,32.48
2022-08-07T22:09:12.304Z,32.35
2022-08-07T22:14:15.069Z,32.05
2022-08-07T22:19:34.829Z,32.38
2022-08-07T22:24:49.811Z,32.42
2022-08-07T22:29:58.063Z,32.44
2022-08-07T22:35:01.417Z,32.27
2022-08-07T22:40:42.997Z,32.76
2022-08-07T22:46:04.577Z,32.76
2022-08-07T22:51:53.410Z,33.50
2022-08-07T22:57:29.286Z,34.03
2022-08-07T23:02:41.536Z,34.13
2022-08-07T23:08:24.354Z,34.44
2022-08-07T23:14:15.597Z,34.91
2022-08-07T23:19:58.577Z,34.53
2022-08-07T23:25:35.487Z,35.39
2022-08-07T23:31:07.123Z,34.84
2022-08-07T23:36:43.179Z,34.87
2022-08-07T23:42:05.056Z,35.50
2022-08-07T23:47:26.213Z,36.04
2022-08-07T23:53:05.642Z,35.90
2022-08-07T23:58:18.717Z,36.35
